KEAT

Pangborn Memorial Airport

Wenatchee, Washington, USA
METAR KEAT 201555Z AUTO 27007KT 3/4SM HZ BKN023 OVC032 17/08 A3001 RMK AO2 SLP156 T01720083
Observed Flight Rules
Aug-20 @ 15:55 UTC (28 minutes ago) Instrument Flight Rules
Wind Visibility Clouds Conditions
270° at 7 knots 3/4 miles
  • Broken at 2,300' AGL
  • Overcast at 3,200' AGL
  • Haze
Temperatures Readings
Current 17°C / 63°F
Dewpoint 8°C / 46°F
Humidity 56%
Altimeter 30.01" Hg
Pressure 1015.6 hPa
Elevation 377
METAR KEAT 201555Z AUTO 27007KT 3/4SM HZ BKN023 OVC032 17/08 A3001 RMK AO2 SLP156 T01720083
Observed Flight Rules
Aug-20 @ 15:55 UTC
(28 minutes ago)
LIFR
Wind Visibility
270° at 7 knots 3/4 miles
Clouds
  • Broken at 2,300' AGL
  • Overcast at 3,200' AGL
Conditions
  • Haze
Temperature Dewpoint
17°C / 63°F 8°C / 46°F
Humidity Altimeter Pressure
56% 30.01" Hg 1015.6 hPa